Time;durP1;ratioP1;P1;durP2;ratioP2;P2;SDS_P1;SDS_P2;PMS_P1;PMS_P2;Temp;Humidity;BMP_temperature;BMP_pressure;BME280_temperature;BME280_humidity;BME280_pressure;Samples;Min_cycle;Max_cycle;Signal;HPM_P1;HPM_P2
2024/01/05 00:01:33;;;;;;;2.55;1.38;;;;;;;-1.94;97.70;100638.13;4943355;29;20209;-40
2024/01/05 00:03:58;;;;;;;2.45;1.88;;;;;;;-1.95;97.75;100635.50;4943349;29;20218;-42
2024/01/05 00:06:24;;;;;;;3.42;1.83;;;;;;;-1.86;97.50;100619.81;4942227;29;20211;-41
2024/01/05 00:08:50;;;;;;;1.60;1.50;;;;;;;-1.84;97.51;100620.72;4943940;28;20202;-43
2024/01/05 00:11:19;;;;;;;2.08;1.77;;;;;;;-1.88;96.73;100619.81;4944500;29;20206;-41
2024/01/05 00:13:46;;;;;;;2.40;1.58;;;;;;;-1.87;96.64;100620.69;4939270;28;20215;-41
2024/01/05 00:16:19;;;;;;;2.45;1.83;;;;;;;-1.91;97.50;100618.91;4942499;29;20188;-42
2024/01/05 00:18:45;;;;;;;5.15;1.80;;;;;;;-1.87;97.83;100621.56;4945340;28;20191;-42
2024/01/05 00:21:20;;;;;;;4.65;1.80;;;;;;;-1.95;97.84;100627.63;4948122;28;20203;-41
2024/01/05 00:23:46;;;;;;;3.22;1.80;;;;;;;-1.91;97.78;100637.28;4946682;28;20275;-41
2024/01/05 00:26:11;;;;;;;2.60;1.60;;;;;;;-1.93;97.65;100631.13;4947820;28;20202;-41
2024/01/05 00:28:37;;;;;;;2.05;1.80;;;;;;;-1.92;97.78;100627.66;4945275;28;20186;-43
2024/01/05 00:31:02;;;;;;;2.10;1.90;;;;;;;-1.90;97.75;100633.81;4943716;29;20193;-42
2024/01/05 00:33:28;;;;;;;2.10;1.90;;;;;;;-1.95;98.00;100635.50;4948447;28;20597;-41
2024/01/05 00:35:53;;;;;;;2.38;1.77;;;;;;;-1.95;98.31;100625.00;4944904;29;20243;-42
2024/01/05 00:38:19;;;;;;;2.63;1.88;;;;;;;-1.89;97.69;100620.66;4946623;29;20182;-42
2024/01/05 00:40:44;;;;;;;2.00;1.70;;;;;;;-1.96;97.77;100603.13;4946442;28;20658;-42
2024/01/05 00:43:10;;;;;;;2.67;1.73;;;;;;;-1.96;97.91;100618.00;4945652;29;20206;-43
2024/01/05 00:45:35;;;;;;;2.75;1.77;;;;;;;-1.94;98.93;100605.75;4944985;28;20225;-41
2024/01/05 00:48:01;;;;;;;3.25;1.90;;;;;;;-1.89;99.28;100612.78;4947029;29;20572;-43
2024/01/05 00:50:26;;;;;;;4.25;2.50;;;;;;;-1.93;98.57;100612.75;4946968;28;20183;-42
2024/01/05 00:52:52;;;;;;;2.67;1.50;;;;;;;-1.98;98.22;100611.84;4947183;28;20178;-43
2024/01/05 00:55:17;;;;;;;2.83;1.90;;;;;;;-1.91;99.08;100605.78;4948081;28;20214;-43
2024/01/05 00:57:43;;;;;;;3.63;1.80;;;;;;;-2.00;99.05;100609.19;4943427;29;20386;-42
2024/01/05 01:00:09;;;;;;;2.55;2.08;;;;;;;-1.96;98.62;100610.13;4946361;28;20642;-43
2024/01/05 01:02:37;;;;;;;2.50;2.10;;;;;;;-1.90;98.58;100618.94;4947329;29;20264;-42
2024/01/05 01:05:03;;;;;;;2.53;1.75;;;;;;;-1.85;99.22;100616.34;4943736;29;20214;-41
2024/01/05 01:07:29;;;;;;;2.80;1.95;;;;;;;-1.87;99.36;100613.69;4944135;29;20223;-42
2024/01/05 01:09:55;;;;;;;2.35;1.70;;;;;;;-1.89;99.28;100612.78;4947033;28;20246;-42
2024/01/05 01:12:20;;;;;;;2.25;1.73;;;;;;;-1.87;99.07;100618.06;4946211;29;20187;-44
2024/01/05 01:14:46;;;;;;;4.28;1.77;;;;;;;-1.85;99.26;100626.84;4948099;28;20340;-41
2024/01/05 01:17:11;;;;;;;3.25;1.98;;;;;;;-1.81;99.54;100619.88;4945418;29;20182;-42
2024/01/05 01:19:37;;;;;;;2.92;1.70;;;;;;;-1.86;99.97;100614.56;4942389;29;20568;-42
2024/01/05 01:22:03;;;;;;;1.85;1.75;;;;;;;-1.78;99.87;100617.28;4960334;28;20301;-42
2024/01/05 01:24:29;;;;;;;2.10;1.90;;;;;;;-1.89;99.16;100619.81;4949932;28;20213;-42
2024/01/05 01:26:54;;;;;;;4.53;2.10;;;;;;;-1.86;99.94;100617.19;4946295;29;20190;-42
2024/01/05 01:29:20;;;;;;;2.40;2.10;;;;;;;-1.80;99.82;100608.50;4946024;28;20281;-43
2024/01/05 01:31:45;;;;;;;4.82;2.30;;;;;;;-1.79;100.00;100613.78;4945232;28;20616;-42
2024/01/05 01:34:11;;;;;;;2.63;1.98;;;;;;;-1.81;99.86;100615.50;4946729;28;20215;-41
2024/01/05 01:36:36;;;;;;;3.70;2.50;;;;;;;-1.80;99.57;100614.63;4946560;29;20636;-42
2024/01/05 01:39:04;;;;;;;2.10;1.90;;;;;;;-1.76;99.25;100610.28;4941301;28;20270;-43
2024/01/05 01:41:30;;;;;;;2.42;2.00;;;;;;;-1.86;99.25;100606.69;4947331;29;20330;-42
2024/01/05 01:43:56;;;;;;;2.38;1.90;;;;;;;-1.88;99.13;100593.56;4941782;28;20282;-41
2024/01/05 01:46:23;;;;;;;2.28;1.98;;;;;;;-1.88;98.87;100606.69;4945820;29;20278;-42
2024/01/05 01:48:50;;;;;;;1.67;1.50;;;;;;;-1.93;98.81;100600.50;4943711;28;20186;-41
2024/01/05 01:51:16;;;;;;;2.70;1.73;;;;;;;-1.92;98.85;100583.91;4944720;29;20563;-40
2024/01/05 01:53:42;;;;;;;1.90;1.75;;;;;;;-1.90;98.92;100578.66;4943901;28;20576;-41
2024/01/05 01:56:11;;;;;;;2.58;1.55;;;;;;;-1.95;99.49;100573.34;4947576;29;20179;-42
2024/01/05 01:58:42;;;;;;;1.83;1.55;;;;;;;-1.96;98.88;100584.75;4959087;28;20202;-41
2024/01/05 02:01:09;;;;;;;1.95;1.70;;;;;;;-1.96;99.32;100582.09;4946289;29;20214;-43
2024/01/05 02:03:34;;;;;;;2.88;1.80;;;;;;;-1.96;98.93;100568.13;4946538;28;20199;-42
2024/01/05 02:06:00;;;;;;;2.88;1.90;;;;;;;-1.98;99.42;100580.34;4943408;28;20254;-40
2024/01/05 02:08:27;;;;;;;3.00;2.33;;;;;;;-1.92;99.60;100578.66;4944213;28;20666;-41
2024/01/05 02:10:52;;;;;;;3.17;1.80;;;;;;;-1.93;99.29;100579.50;4939355;28;20214;-42
2024/01/05 02:13:18;;;;;;;3.20;2.00;;;;;;;-1.91;99.28;100590.91;4946874;28;20226;-42
2024/01/05 02:15:44;;;;;;;2.10;1.90;;;;;;;-1.95;99.85;100577.72;4944617;28;20201;-41
2024/01/05 02:18:14;;;;;;;1.83;1.65;;;;;;;-1.95;99.91;100585.59;4947212;29;20190;-42
2024/01/05 02:20:40;;;;;;;2.85;1.80;;;;;;;-1.94;100.00;100583.00;4939766;28;20202;-44
2024/01/05 02:23:29;;;;;;;2.97;2.08;;;;;;;-1.93;100.00;100576.00;4945032;28;20277;-43
2024/01/05 02:25:55;;;;;;;2.63;1.92;;;;;;;-1.91;100.00;100579.53;4941046;29;20175;-41
2024/01/05 02:28:21;;;;;;;3.85;2.10;;;;;;;-1.96;99.86;100574.25;4940678;29;20191;-42
2024/01/05 02:30:47;;;;;;;3.97;2.40;;;;;;;-2.00;99.73;100572.44;4946412;28;20570;-42
2024/01/05 02:33:13;;;;;;;2.72;2.53;;;;;;;-2.02;99.97;100570.69;4943237;28;20202;-41
2024/01/05 02:35:38;;;;;;;3.08;2.63;;;;;;;-2.01;99.90;100586.44;4941480;28;20582;-43
2024/01/05 02:38:05;;;;;;;3.75;2.50;;;;;;;-1.91;100.00;100566.41;4943874;29;20264;-42
2024/01/05 02:40:31;;;;;;;2.67;2.47;;;;;;;-1.95;100.00;100575.97;4947272;28;20190;-41
2024/01/05 02:42:57;;;;;;;3.65;2.53;;;;;;;-1.97;100.00;100571.59;4940112;28;20318;-41
2024/01/05 02:45:22;;;;;;;3.83;2.22;;;;;;;-1.90;100.00;100579.53;4945440;29;20187;-42
2024/01/05 02:47:51;;;;;;;5.13;2.72;;;;;;;-1.89;100.00;100577.78;4939675;29;20176;-42
2024/01/05 02:50:17;;;;;;;4.25;2.70;;;;;;;-1.85;100.00;100584.84;4956257;28;20183;-40
2024/01/05 02:52:43;;;;;;;2.78;2.58;;;;;;;-1.87;100.00;100573.44;4945158;29;20185;-41
2024/01/05 02:55:12;;;;;;;3.80;2.35;;;;;;;-1.93;100.00;100589.13;4943950;29;20218;-41
2024/01/05 02:57:38;;;;;;;4.70;2.88;;;;;;;-1.92;100.00;100583.03;4945054;29;20649;-41
2024/01/05 03:00:05;;;;;;;6.28;2.65;;;;;;;-1.93;100.00;100582.13;4940528;29;20182;-42
2024/01/05 03:02:31;;;;;;;3.17;2.55;;;;;;;-1.95;100.00;100588.22;4940636;28;20213;-42
2024/01/05 03:04:57;;;;;;;3.70;3.30;;;;;;;-1.90;100.00;100578.66;4947070;28;20203;-42
2024/01/05 03:07:22;;;;;;;3.97;3.10;;;;;;;-1.88;100.00;100566.41;4939981;29;20522;-40
2024/01/05 03:09:48;;;;;;;3.97;3.10;;;;;;;-1.90;100.00;100555.91;4941155;28;20273;-41
2024/01/05 03:12:13;;;;;;;2.55;2.35;;;;;;;-1.93;100.00;100561.13;4942314;29;20277;-40
2024/01/05 03:14:39;;;;;;;3.28;2.40;;;;;;;-1.85;100.00;100555.06;4936676;29;20219;-40
2024/01/05 03:17:05;;;;;;;2.50;2.30;;;;;;;-1.85;100.00;100568.22;4941303;28;20222;-41
2024/01/05 03:19:31;;;;;;;2.78;2.50;;;;;;;-1.91;100.00;100550.63;4944977;28;20197;-41
2024/01/05 03:21:56;;;;;;;4.90;2.92;;;;;;;-1.93;100.00;100544.50;4940996;29;20202;-41
2024/01/05 03:24:22;;;;;;;4.75;2.35;;;;;;;-1.81;100.00;100548.97;4938851;29;20277;-42
2024/01/05 03:26:48;;;;;;;3.85;2.78;;;;;;;-1.87;100.00;100549.81;4940318;29;20191;-41
2024/01/05 03:29:14;;;;;;;2.78;2.38;;;;;;;-1.85;100.00;100548.06;4940993;29;20199;-41
2024/01/05 03:31:39;;;;;;;3.42;2.75;;;;;;;-1.89;100.00;100551.53;4944227;28;20179;-42
2024/01/05 03:34:05;;;;;;;3.28;2.97;;;;;;;-1.89;100.00;100554.16;4942775;28;20229;-42
2024/01/05 03:36:30;;;;;;;3.83;2.95;;;;;;;-1.87;100.00;100537.53;4938718;29;20184;-41
2024/01/05 03:38:56;;;;;;;3.53;3.00;;;;;;;-1.78;100.00;100536.72;4943187;28;20209;-41
2024/01/05 03:41:21;;;;;;;4.03;2.65;;;;;;;-1.75;100.00;100530.63;4939115;29;20200;-42
2024/01/05 03:43:48;;;;;;;3.75;2.70;;;;;;;-1.76;100.00;100540.25;4940014;29;20253;-42
2024/01/05 03:46:13;;;;;;;2.67;2.42;;;;;;;-1.72;100.00;100534.16;4941746;28;20554;-42
2024/01/05 03:48:39;;;;;;;4.10;2.65;;;;;;;-1.70;100.00;100534.19;4942478;29;20183;-42
2024/01/05 03:51:05;;;;;;;3.85;2.60;;;;;;;-1.71;100.00;100529.78;4935130;29;20183;-43
2024/01/05 03:53:30;;;;;;;4.38;2.67;;;;;;;-1.68;100.00;100520.19;4944531;28;20297;-40
2024/01/05 03:56:00;;;;;;;3.30;2.55;;;;;;;-1.62;100.00;100518.47;4942603;28;20239;-42
2024/01/05 03:58:27;;;;;;;8.25;2.50;;;;;;;-1.62;100.00;100510.56;4947606;29;20239;-42
2024/01/05 04:00:53;;;;;;;4.00;2.47;;;;;;;-1.59;100.00;100514.09;4945701;28;20182;-43
2024/01/05 04:03:18;;;;;;;4.03;2.55;;;;;;;-1.59;100.00;100500.97;4948234;29;20580;-43
2024/01/05 04:05:44;;;;;;;4.20;2.33;;;;;;;-1.61;100.00;100507.09;4947540;29;20242;-42
2024/01/05 04:08:09;;;;;;;4.28;2.10;;;;;;;-1.59;100.00;100497.47;4948248;28;20190;-42
2024/01/05 04:10:35;;;;;;;4.47;2.10;;;;;;;-1.54;100.00;100494.00;4941303;29;20171;-42
2024/01/05 04:13:01;;;;;;;3.70;2.10;;;;;;;-1.49;100.00;100492.28;4940361;29;20175;-40
2024/01/05 04:15:27;;;;;;;2.47;2.28;;;;;;;-1.49;100.00;100481.78;4945324;28;20310;-41
2024/01/05 04:17:53;;;;;;;2.95;2.03;;;;;;;-1.46;100.00;100484.41;4939781;28;20183;-41
2024/01/05 04:20:19;;;;;;;2.97;2.00;;;;;;;-1.48;100.00;100478.25;4948063;29;20190;-42
2024/01/05 04:22:45;;;;;;;2.15;1.95;;;;;;;-1.38;100.00;100483.56;4947612;28;20223;-42
2024/01/05 04:25:10;;;;;;;3.30;2.33;;;;;;;-1.39;100.00;100484.44;4944818;28;20579;-43
2024/01/05 04:27:36;;;;;;;3.30;2.20;;;;;;;-1.36;100.00;100477.44;4943449;29;20213;-43
2024/01/05 04:30:03;;;;;;;3.58;2.30;;;;;;;-1.34;100.00;100483.56;4945011;29;20526;-42
2024/01/05 04:32:29;;;;;;;2.88;1.92;;;;;;;-1.36;100.00;100480.06;4948097;29;20391;-42
2024/01/05 04:34:55;;;;;;;2.70;2.45;;;;;;;-1.34;100.00;100486.19;4945839;28;20305;-42
2024/01/05 04:37:20;;;;;;;2.85;2.03;;;;;;;-1.33;100.00;100487.09;4946055;29;20190;-42
2024/01/05 04:39:45;;;;;;;4.13;2.30;;;;;;;-1.33;100.00;100481.84;4944478;29;20705;-43
2024/01/05 04:42:12;;;;;;;2.97;2.65;;;;;;;-1.34;100.00;100475.69;4945400;28;20207;-43
2024/01/05 04:44:37;;;;;;;2.80;2.22;;;;;;;-1.33;100.00;100474.84;4942849;28;20697;-41
2024/01/05 04:47:03;;;;;;;2.50;2.28;;;;;;;-1.30;100.00;100461.69;4948934;29;20190;-42
2024/01/05 04:49:28;;;;;;;4.40;2.60;;;;;;;-1.28;100.00;100469.59;4942237;28;20291;-43
2024/01/05 04:51:54;;;;;;;2.38;2.10;;;;;;;-1.31;100.00;100480.13;4947695;28;20211;-42
2024/01/05 04:54:19;;;;;;;4.10;2.40;;;;;;;-1.29;100.00;100466.09;4944107;29;20241;-41
2024/01/05 04:56:45;;;;;;;3.08;2.28;;;;;;;-1.29;100.00;100467.81;4948203;29;20731;-41
2024/01/05 04:59:10;;;;;;;3.63;1.80;;;;;;;-1.31;100.00;100466.97;4943464;28;20219;-43
2024/01/05 05:01:36;;;;;;;5.47;2.53;;;;;;;-1.33;100.00;100461.69;4947370;29;20215;-43
2024/01/05 05:04:02;;;;;;;2.42;2.10;;;;;;;-1.32;100.00;100468.69;4942599;28;20697;-40
2024/01/05 05:06:27;;;;;;;2.40;1.90;;;;;;;-1.32;100.00;100463.44;4942316;28;20183;-43
2024/01/05 05:08:53;;;;;;;1.95;1.80;;;;;;;-1.32;100.00;100467.81;4942435;28;20690;-42
2024/01/05 05:11:19;;;;;;;2.70;1.90;;;;;;;-1.21;100.00;100457.34;4946843;28;20552;-42
2024/01/05 05:13:44;;;;;;;4.70;2.05;;;;;;;-1.26;100.00;100439.81;4947014;28;20207;-43
2024/01/05 05:16:10;;;;;;;1.65;1.40;;;;;;;-1.29;100.00;100442.44;4945388;28;20194;-41
2024/01/05 05:18:35;;;;;;;3.75;1.52;;;;;;;-1.29;100.00;100436.28;4946072;29;21403;-42
2024/01/05 05:21:02;;;;;;;4.00;2.03;;;;;;;-1.30;100.00;100431.91;4946535;29;20194;-41
2024/01/05 05:23:27;;;;;;;2.15;1.92;;;;;;;-1.33;100.00;100424.03;4946153;28;20214;-41
2024/01/05 05:25:52;;;;;;;2.42;2.20;;;;;;;-1.31;100.00;100430.19;4943365;29;20183;-44
2024/01/05 05:28:18;;;;;;;1.60;1.50;;;;;;;-1.27;100.00;100429.28;4943517;29;20269;-42
2024/01/05 05:30:43;;;;;;;2.42;1.73;;;;;;;-1.28;100.00;100430.19;4947039;29;20680;-42
2024/01/05 05:33:09;;;;;;;1.98;1.77;;;;;;;-1.36;100.00;100437.16;4944471;28;20588;-42
2024/01/05 05:35:35;;;;;;;2.20;1.67;;;;;;;-1.28;100.00;100438.94;4945059;29;20234;-41
2024/01/05 05:38:03;;;;;;;3.10;1.98;;;;;;;-1.31;100.00;100446.81;4945878;28;20238;-42
2024/01/05 05:40:29;;;;;;;2.47;1.55;;;;;;;-1.30;100.00;100435.41;4946410;28;20293;-43
2024/01/05 05:42:55;;;;;;;3.63;1.77;;;;;;;-1.28;100.00;100428.41;4942880;28;20677;-43
2024/01/05 05:45:20;;;;;;;2.53;1.58;;;;;;;-1.31;100.00;100448.56;4946132;28;20210;-42
2024/01/05 05:47:46;;;;;;;6.15;1.88;;;;;;;-1.33;100.00;100450.31;4947083;29;20171;-43
2024/01/05 05:50:13;;;;;;;2.03;1.70;;;;;;;-1.28;100.00;100449.44;4947205;28;20218;-41
2024/01/05 05:52:39;;;;;;;2.90;1.90;;;;;;;-1.28;100.00;100433.69;4946663;29;20183;-43
2024/01/05 05:55:06;;;;;;;1.50;1.40;;;;;;;-1.26;100.00;100441.56;4941536;28;20235;-42
2024/01/05 05:57:32;;;;;;;1.83;1.60;;;;;;;-1.26;100.00;100442.44;4946368;29;20190;-43
2024/01/05 05:59:58;;;;;;;5.07;1.85;;;;;;;-1.23;100.00;100445.97;4944264;29;20186;-43
2024/01/05 06:02:25;;;;;;;1.73;1.63;;;;;;;-1.27;100.00;100450.31;4939440;29;20761;-43
2024/01/05 06:04:50;;;;;;;1.63;1.50;;;;;;;-1.27;100.00;100442.44;4943692;28;20249;-42
2024/01/05 06:07:16;;;;;;;3.65;1.77;;;;;;;-1.26;100.00;100442.44;4942420;28;20278;-42
2024/01/05 06:09:43;;;;;;;1.95;1.58;;;;;;;-1.20;100.00;100443.31;4942080;28;20201;-42
2024/01/05 06:12:09;;;;;;;2.03;1.90;;;;;;;-1.20;100.00;100452.13;4943551;29;20178;-42
2024/01/05 06:14:36;;;;;;;4.05;1.92;;;;;;;-1.25;100.00;100445.94;4946123;28;20647;-40
2024/01/05 06:17:02;;;;;;;3.63;1.88;;;;;;;-1.23;100.00;100440.69;4943888;29;20186;-42
2024/01/05 06:19:27;;;;;;;1.73;1.63;;;;;;;-1.27;100.00;100443.34;4944906;28;20553;-42
2024/01/05 06:21:53;;;;;;;3.00;1.58;;;;;;;-1.23;100.00;100445.97;4942618;28;20201;-42
2024/01/05 06:24:18;;;;;;;2.75;1.77;;;;;;;-1.19;100.00;100447.72;4944220;28;20210;-42
2024/01/05 06:26:44;;;;;;;4.28;1.73;;;;;;;-1.25;100.00;100453.84;4943219;29;20285;-43
2024/01/05 06:29:09;;;;;;;2.10;1.90;;;;;;;-1.27;100.00;100453.84;4943708;29;20279;-41
2024/01/05 06:31:35;;;;;;;2.17;1.85;;;;;;;-1.25;100.00;100446.84;4945411;29;20508;-42
2024/01/05 06:34:01;;;;;;;2.03;1.88;;;;;;;-1.22;100.00;100450.31;4945147;28;20205;-41
2024/01/05 06:36:26;;;;;;;2.13;1.80;;;;;;;-1.23;100.00;100445.97;4941477;28;20203;-41
2024/01/05 06:38:52;;;;;;;3.90;2.20;;;;;;;-1.17;100.00;100452.13;4943838;29;20222;-42
2024/01/05 06:41:17;;;;;;;8.65;2.08;;;;;;;-1.18;100.00;100455.63;4942915;29;20230;-41
2024/01/05 06:43:43;;;;;;;3.67;2.10;;;;;;;-1.20;100.00;100462.63;4941122;28;20522;-42
2024/01/05 06:46:08;;;;;;;2.28;2.08;;;;;;;-1.21;100.00;100458.22;4944325;28;20191;-45
2024/01/05 06:48:34;;;;;;;4.72;2.22;;;;;;;-1.21;100.00;100458.22;4945995;28;20195;-42
2024/01/05 06:50:59;;;;;;;2.53;2.00;;;;;;;-1.19;100.00;100456.50;4945019;29;20198;-43
2024/01/05 06:53:25;;;;;;;4.20;1.90;;;;;;;-1.17;100.00;100469.66;4945860;28;20217;-43
2024/01/05 06:55:51;;;;;;;2.55;2.20;;;;;;;-1.21;100.00;100466.13;4948041;28;20183;-43
2024/01/05 06:58:16;;;;;;;3.40;1.90;;;;;;;-1.21;100.00;100473.13;4944371;28;20238;-44
2024/01/05 07:00:42;;;;;;;3.38;2.00;;;;;;;-1.19;100.00;100474.88;4942596;29;20266;-43
2024/01/05 07:03:08;;;;;;;2.40;1.95;;;;;;;-1.17;100.00;100462.63;4942836;28;20313;-43
2024/01/05 07:05:33;;;;;;;2.83;2.28;;;;;;;-1.14;100.00;100456.50;4940729;28;20277;-42
2024/01/05 07:07:59;;;;;;;5.78;1.90;;;;;;;-1.17;100.00;100448.63;4937876;29;20562;-43
2024/01/05 07:10:24;;;;;;;2.53;1.90;;;;;;;-1.20;100.00;100441.59;4941611;28;20206;-43
2024/01/05 07:12:50;;;;;;;2.17;1.95;;;;;;;-1.20;100.00;100435.44;4942686;28;20190;-42
2024/01/05 07:15:16;;;;;;;3.90;2.00;;;;;;;-1.22;100.00;100442.44;4943292;29;20265;-42
2024/01/05 07:17:45;;;;;;;2.38;1.90;;;;;;;-1.26;100.00;100426.69;4944226;29;20534;-41
2024/01/05 07:20:11;;;;;;;2.70;1.70;;;;;;;-1.25;100.00;100423.19;4939789;29;20669;-42
2024/01/05 07:22:37;;;;;;;4.75;2.72;;;;;;;-1.25;100.00;100432.81;4939808;29;20306;-43
2024/01/05 07:25:03;;;;;;;2.40;2.05;;;;;;;-1.27;100.00;100430.19;4942957;28;20208;-43
2024/01/05 07:27:29;;;;;;;2.63;2.25;;;;;;;-1.19;100.00;100437.22;4946139;28;20721;-41
2024/01/05 07:29:55;;;;;;;2.45;2.03;;;;;;;-1.21;100.00;100438.97;4945403;29;20215;-43
2024/01/05 07:32:21;;;;;;;2.25;1.90;;;;;;;-1.22;100.00;100445.97;4944620;28;20669;-43
2024/01/05 07:34:46;;;;;;;5.57;2.80;;;;;;;-1.31;100.00;100432.81;4948033;28;20287;-43
2024/01/05 07:37:12;;;;;;;2.30;2.10;;;;;;;-1.29;100.00;100438.91;4946131;29;20195;-43
2024/01/05 07:39:38;;;;;;;4.53;2.10;;;;;;;-1.34;100.00;100462.56;4943836;28;20312;-43
2024/01/05 07:42:04;;;;;;;3.67;2.60;;;;;;;-1.37;100.00;100452.03;4942454;29;20365;-43
2024/01/05 07:44:30;;;;;;;3.90;2.70;;;;;;;-1.43;100.00;100459.91;4946320;28;20596;-43
2024/01/05 07:46:55;;;;;;;5.47;3.20;;;;;;;-1.45;100.00;100464.25;4945962;29;20191;-42
2024/01/05 07:49:21;;;;;;;3.88;2.90;;;;;;;-1.41;100.00;100463.41;4941655;29;20206;-43
2024/01/05 07:51:47;;;;;;;3.30;3.00;;;;;;;-1.48;100.00;100461.63;4942209;29;20180;-43
2024/01/05 07:54:12;;;;;;;3.58;3.00;;;;;;;-1.47;100.00;100458.13;4943677;29;20229;-44
2024/01/05 07:56:38;;;;;;;4.50;3.22;;;;;;;-1.44;100.00;100468.66;4945471;29;20564;-43
2024/01/05 07:59:04;;;;;;;4.28;2.70;;;;;;;-1.54;100.00;100467.72;4948425;28;20190;-44
2024/01/05 08:01:30;;;;;;;6.50;3.28;;;;;;;-1.53;100.00;100460.72;4945226;29;20209;-43
2024/01/05 08:03:55;;;;;;;2.75;2.45;;;;;;;-1.47;100.00;100453.72;4941956;28;20669;-44
2024/01/05 08:06:21;;;;;;;6.38;2.88;;;;;;;-1.52;100.00;100459.84;4946728;29;20195;-42
2024/01/05 08:08:47;;;;;;;3.17;2.88;;;;;;;-1.47;100.00;100448.47;4949100;29;20611;-42
2024/01/05 08:11:14;;;;;;;2.70;2.50;;;;;;;-1.47;100.00;100447.59;4942358;28;20187;-43
2024/01/05 08:13:46;;;;;;;4.13;2.72;;;;;;;-1.46;100.00;100452.00;4944054;28;20222;-45
2024/01/05 08:16:12;;;;;;;5.82;2.90;;;;;;;-1.46;100.00;100462.53;4946956;29;20205;-41
2024/01/05 08:18:40;;;;;;;4.00;2.47;;;;;;;-1.47;100.00;100471.25;4944075;29;20195;-42
2024/01/05 08:21:06;;;;;;;4.15;2.50;;;;;;;-1.45;100.00;100469.50;4946883;29;20261;-43
2024/01/05 08:23:32;;;;;;;3.13;2.38;;;;;;;-1.54;100.00;100478.22;4940460;29;20218;-42
2024/01/05 08:25:58;;;;;;;3.28;2.28;;;;;;;-1.49;100.00;100473.00;4945125;29;20193;-42
2024/01/05 08:28:24;;;;;;;3.97;2.50;;;;;;;-1.55;100.00;100463.34;4950068;28;20186;-42
2024/01/05 08:30:50;;;;;;;3.80;2.28;;;;;;;-1.49;100.00;100465.09;4944720;29;20187;-40
2024/01/05 08:33:16;;;;;;;3.03;2.40;;;;;;;-1.54;100.00;100459.84;4945141;28;20896;-42
2024/01/05 08:35:41;;;;;;;3.38;2.40;;;;;;;-1.57;100.00;100461.59;4947083;29;20195;-43
2024/01/05 08:38:07;;;;;;;3.58;2.35;;;;;;;-1.51;100.00;100465.13;4944510;28;20186;-42
2024/01/05 08:40:33;;;;;;;2.50;2.30;;;;;;;-1.56;100.00;100455.44;4944995;29;20278;-42
2024/01/05 08:42:58;;;;;;;3.75;2.47;;;;;;;-1.50;100.00;100472.13;4943095;29;20618;-43
2024/01/05 08:45:24;;;;;;;2.55;2.05;;;;;;;-1.51;100.00;100472.09;4948371;28;20308;-42
2024/01/05 08:47:50;;;;;;;2.70;2.10;;;;;;;-1.58;100.00;100465.94;4945269;28;20205;-44
2024/01/05 08:50:19;;;;;;;2.15;1.95;;;;;;;-1.57;100.00;100472.09;4942880;29;20527;-44
2024/01/05 08:52:45;;;;;;;2.67;2.00;;;;;;;-1.64;100.00;100465.94;4936595;28;20295;-43
2024/01/05 08:55:15;;;;;;;3.17;2.10;;;;;;;-1.59;100.00;100472.09;4950438;28;20606;-41
2024/01/05 08:57:41;;;;;;;4.03;1.70;;;;;;;-1.58;100.00;100475.59;4947885;28;20195;-43
2024/01/05 09:00:10;;;;;;;1.80;1.70;;;;;;;-1.57;100.00;100469.47;4947097;28;20199;-43
2024/01/05 09:02:39;;;;;;;1.80;1.70;;;;;;;-1.58;100.00;100480.84;4947949;28;20285;-44
2024/01/05 09:05:05;;;;;;;2.05;1.88;;;;;;;-1.54;100.00;100469.47;4944234;29;20310;-41
2024/01/05 09:07:33;;;;;;;2.35;1.75;;;;;;;-1.54;100.00;100479.97;4946259;29;20263;-42
2024/01/05 09:10:00;;;;;;;1.98;1.52;;;;;;;-1.62;100.00;100482.56;4946402;28;20630;-41
2024/01/05 09:12:26;;;;;;;1.77;1.67;;;;;;;-1.57;100.00;100485.22;4946968;28;20189;-40
2024/01/05 09:14:51;;;;;;;1.88;1.70;;;;;;;-1.62;100.00;100484.31;4945745;28;20246;-43
2024/01/05 09:17:17;;;;;;;3.63;1.80;;;;;;;-1.77;100.00;100480.75;4946498;28;20217;-41
2024/01/05 09:19:43;;;;;;;2.47;1.85;;;;;;;-1.79;100.00;100492.97;4945871;29;20285;-42
2024/01/05 09:22:09;;;;;;;3.55;2.00;;;;;;;-1.89;100.00;100486.78;4943950;28;20211;-43
2024/01/05 09:24:36;;;;;;;2.72;1.90;;;;;;;-1.85;100.00;100497.31;4940900;29;20277;-42
2024/01/05 09:27:02;;;;;;;2.17;1.70;;;;;;;-1.89;100.00;100507.78;4946828;29;20203;-42
2024/01/05 09:29:32;;;;;;;3.08;1.65;;;;;;;-1.81;100.00;100505.22;4943693;28;20312;-42
2024/01/05 09:31:58;;;;;;;1.30;1.20;;;;;;;-1.83;100.00;100512.19;4943721;29;20191;-41
2024/01/05 09:34:23;;;;;;;1.95;1.50;;;;;;;-1.84;100.00;100520.06;4944936;28;20191;-41
2024/01/05 09:36:50;;;;;;;2.50;1.70;;;;;;;-1.89;100.00;100499.91;4946022;29;20184;-41
2024/01/05 09:39:16;;;;;;;1.52;1.42;;;;;;;-1.80;100.00;100496.47;4946501;28;20186;-42
2024/01/05 09:41:42;;;;;;;1.50;1.40;;;;;;;-1.78;100.00;100491.22;4945523;28;20809;-44
2024/01/05 09:44:11;;;;;;;2.00;1.50;;;;;;;-1.87;100.00;100489.41;4945271;29;20211;-44
2024/01/05 09:46:39;;;;;;;2.17;1.40;;;;;;;-1.82;100.00;100479.81;4942159;28;20202;-40
2024/01/05 09:49:06;;;;;;;1.42;1.30;;;;;;;-1.83;100.00;100485.06;4946468;28;20199;-44
2024/01/05 09:51:32;;;;;;;1.48;1.38;;;;;;;-1.81;100.00;100467.59;4943637;29;20180;-42
2024/01/05 09:53:58;;;;;;;2.05;1.85;;;;;;;-1.86;100.00;100472.78;4946970;28;20647;-42
2024/01/05 09:56:28;;;;;;;2.55;1.95;;;;;;;-1.83;100.00;100472.81;4944337;29;20225;-42
2024/01/05 09:58:54;;;;;;;4.28;1.90;;;;;;;-1.74;100.00;100483.38;4945440;28;20642;-42
2024/01/05 10:01:28;;;;;;;2.50;1.65;;;;;;;-1.76;100.00;100474.59;4944985;28;20582;-42
2024/01/05 10:04:04;;;;;;;2.55;1.73;;;;;;;-1.66;100.00;100471.16;4941293;28;20233;-41
2024/01/05 10:06:30;;;;;;;1.92;1.70;;;;;;;-1.71;100.00;100458.88;4943408;29;20269;-42
2024/01/05 10:08:59;;;;;;;2.22;1.70;;;;;;;-1.66;100.00;100457.16;4926839;29;20195;-41
2024/01/05 10:11:32;;;;;;;2.40;2.20;;;;;;;-1.53;100.00;100458.09;4944451;29;20265;-42
2024/01/05 10:14:04;;;;;;;1.80;1.63;;;;;;;-1.56;100.00;100447.56;4943137;28;20562;-41
2024/01/05 10:16:37;;;;;;;5.63;1.75;;;;;;;-1.51;100.00;100462.50;4942210;29;20224;-43
2024/01/05 10:19:19;;;;;;;3.22;2.15;;;;;;;-1.53;100.00;100453.72;4945913;29;20182;-43
2024/01/05 10:21:46;;;;;;;2.13;1.73;;;;;;;-1.42;100.00;100443.28;4940505;29;20207;-41
2024/01/05 10:24:15;;;;;;;2.63;2.00;;;;;;;-1.32;100.00;100450.31;4945152;28;20243;-42
2024/01/05 10:26:41;;;;;;;1.70;1.60;;;;;;;-1.49;100.00;100450.25;4944303;29;20187;-42
2024/01/05 10:29:14;;;;;;;2.75;1.58;;;;;;;-1.71;100.00;100446.59;4938852;29;20182;-42
2024/01/05 10:31:40;;;;;;;2.17;1.80;;;;;;;-1.67;100.00;100440.50;4941789;29;20190;-43
2024/01/05 10:34:07;;;;;;;4.18;2.03;;;;;;;-1.57;100.00;100438.81;4945113;28;20227;-42
2024/01/05 10:36:33;;;;;;;3.33;2.00;;;;;;;-1.62;100.00;100442.28;4943581;29;20273;-40
2024/01/05 10:38:59;;;;;;;1.50;1.40;;;;;;;-1.64;100.00;100420.38;4940309;29;20298;-41
2024/01/05 10:41:24;;;;;;;2.83;1.83;;;;;;;-1.75;100.00;100423.84;4945417;28;20241;-42
2024/01/05 10:43:50;;;;;;;1.88;1.63;;;;;;;-1.66;100.00;100415.16;4945476;28;20218;-42
2024/01/05 10:46:20;;;;;;;3.85;1.60;;;;;;;-1.65;100.00;100422.13;4943008;29;20229;-42
2024/01/05 10:48:46;;;;;;;1.70;1.60;;;;;;;-1.64;100.00;100412.50;4942422;29;20242;-42
2024/01/05 10:51:14;;;;;;;1.90;1.80;;;;;;;-1.67;100.00;100414.25;4941335;28;20246;-41
2024/01/05 10:53:40;;;;;;;3.58;1.80;;;;;;;-1.67;100.00;100413.38;4940815;29;20221;-40
2024/01/05 10:56:06;;;;;;;2.42;1.70;;;;;;;-1.58;100.00;100407.28;4946527;29;20186;-40
2024/01/05 10:58:32;;;;;;;2.65;1.90;;;;;;;-1.60;100.00;100383.63;4940571;28;20624;-42
2024/01/05 11:01:02;;;;;;;2.88;1.92;;;;;;;-1.67;100.00;100409.00;4943711;29;20269;-41
2024/01/05 11:03:42;;;;;;;2.97;1.67;;;;;;;-1.66;100.00;100405.50;4941931;29;20218;-42
2024/01/05 11:06:10;;;;;;;4.72;2.50;;;;;;;-1.61;100.00;100404.66;4947249;29;20288;-41
2024/01/05 11:08:56;;;;;;;4.43;2.30;;;;;;;-1.62;100.00;100416.00;4944317;29;20265;-44
2024/01/05 11:11:47;;;;;;;5.97;2.08;;;;;;;-1.62;100.00;100411.63;4944292;28;20198;-42
2024/01/05 11:14:41;;;;;;;2.08;1.88;;;;;;;-1.60;100.00;100425.66;4964847;23;20237;-43
2024/01/05 11:17:49;;;;;;;6.47;2.10;;;;;;;-1.59;100.00;100418.69;4941410;29;20298;-42